Time;durP1;ratioP1;P1;durP2;ratioP2;P2;SDS_P1;SDS_P2;PMS_P1;PMS_P2;Temp;Humidity;BMP_temperature;BMP_pressure;BME280_temperature;BME280_humidity;BME280_pressure;Samples;Min_cycle;Max_cycle;Signal;HPM_P1;HPM_P2
2022/09/03 00:00:04;;;;;;;6.00;1.50;;;18.40;83.70;;;;;;5036534;28;20055;-70
2022/09/03 00:03:02;;;;;;;2.10;1.52;;;18.40;83.70;;;;;;5034977;28;20099;-70
2022/09/03 00:05:42;;;;;;;5.00;1.92;;;18.40;83.60;;;;;;4982885;28;20057;-70
2022/09/03 00:08:19;;;;;;;6.47;1.63;;;18.30;83.30;;;;;;5041773;28;20036;-70
2022/09/03 00:11:05;;;;;;;5.60;1.85;;;18.30;83.40;;;;;;5046102;28;20045;-71
2022/09/03 00:13:56;;;;;;;5.20;1.77;;;18.20;83.90;;;;;;5035093;28;20045;-71
2022/09/03 00:16:28;;;;;;;3.67;1.75;;;18.20;83.70;;;;;;5033898;28;20053;-69
2022/09/03 00:18:59;;;;;;;4.28;1.90;;;18.20;83.60;;;;;;5037869;28;20048;-70
2022/09/03 00:21:45;;;;;;;4.03;1.92;;;18.20;83.80;;;;;;5045695;28;20044;-70
2022/09/03 00:24:15;;;;;;;4.20;1.88;;;18.20;84.50;;;;;;5022725;28;20057;-69
2022/09/03 00:26:44;;;;;;;4.90;1.75;;;18.10;83.80;;;;;;5016859;28;20526;-70
2022/09/03 00:29:17;;;;;;;10.40;2.17;;;18.10;83.50;;;;;;5015910;28;20046;-70
2022/09/03 00:31:50;;;;;;;6.65;1.92;;;18.10;83.80;;;;;;5032091;28;20464;-70
2022/09/03 00:34:31;;;;;;;7.50;1.45;;;18.10;83.90;;;;;;5030843;28;20483;-70
2022/09/03 00:36:57;;;;;;;3.33;1.67;;;18.00;84.20;;;;;;5031306;28;20056;-69
2022/09/03 00:39:25;;;;;;;4.28;2.00;;;18.00;84.20;;;;;;5032659;28;20502;-70
2022/09/03 00:42:05;;;;;;;2.25;1.90;;;18.00;84.60;;;;;;5031122;28;20045;-70
2022/09/03 00:44:59;;;;;;;6.00;1.85;;;17.90;84.70;;;;;;5031293;28;20154;-70
2022/09/03 00:47:56;;;;;;;6.93;2.30;;;17.90;85.20;;;;;;5031197;28;20415;-69
2022/09/03 00:50:59;;;;;;;7.43;1.75;;;17.90;85.20;;;;;;5031632;28;20049;-70
2022/09/03 00:53:52;;;;;;;3.05;1.20;;;17.90;85.00;;;;;;5025372;28;20128;-70
2022/09/03 00:56:38;;;;;;;4.60;2.28;;;17.80;85.00;;;;;;5025603;28;20056;-70
2022/09/03 00:59:22;;;;;;;6.03;2.17;;;17.80;85.60;;;;;;5024432;28;20132;-70
2022/09/03 01:02:04;;;;;;;3.78;1.60;;;17.80;85.30;;;;;;5034691;28;20045;-69
2022/09/03 01:04:36;;;;;;;1.48;1.35;;;17.70;85.40;;;;;;5034686;28;20379;-69
2022/09/03 01:07:06;;;;;;;9.70;2.22;;;17.70;85.40;;;;;;5034675;28;20058;-70
2022/09/03 01:09:49;;;;;;;2.75;1.95;;;17.70;85.70;;;;;;5036482;28;20095;-69
2022/09/03 01:12:35;;;;;;;5.80;1.60;;;17.70;85.60;;;;;;5030535;28;20042;-69
2022/09/03 01:15:19;;;;;;;8.65;1.65;;;17.60;85.80;;;;;;5020019;28;20127;-70
2022/09/03 01:17:51;;;;;;;2.58;1.65;;;17.60;86.10;;;;;;5031281;28;20037;-71
2022/09/03 01:20:48;;;;;;;3.72;1.83;;;17.60;85.80;;;;;;5035582;28;20171;-70
2022/09/03 01:23:38;;;;;;;5.95;1.70;;;17.60;86.50;;;;;;5029871;28;20108;-69
2022/09/03 01:26:28;;;;;;;6.10;1.50;;;17.60;86.20;;;;;;5028863;28;20521;-69
2022/09/03 01:29:11;;;;;;;3.65;1.60;;;17.60;86.60;;;;;;5027329;28;20099;-69
2022/09/03 01:31:47;;;;;;;3.85;1.50;;;17.50;86.60;;;;;;5036844;28;20041;-69
2022/09/03 01:34:29;;;;;;;4.22;1.58;;;17.60;86.90;;;;;;5037082;28;20042;-69
2022/09/03 01:37:07;;;;;;;4.32;1.90;;;17.50;86.70;;;;;;5037007;28;20384;-70
2022/09/03 01:40:00;;;;;;;4.35;1.67;;;17.50;86.40;;;;;;5028293;28;20041;-69
2022/09/03 01:42:29;;;;;;;7.05;1.88;;;17.50;87.10;;;;;;5027431;28;20033;-70
2022/09/03 01:45:28;;;;;;;3.97;1.55;;;17.40;86.80;;;;;;5036980;28;20411;-71
2022/09/03 01:48:21;;;;;;;2.47;1.85;;;17.50;87.60;;;;;;5036742;28;20042;-70
2022/09/03 01:51:09;;;;;;;3.60;1.30;;;17.40;87.10;;;;;;5036713;28;20041;-70
2022/09/03 01:53:38;;;;;;;3.28;1.50;;;17.40;87.20;;;;;;5036661;28;20046;-69
2022/09/03 01:56:19;;;;;;;7.25;1.50;;;17.40;87.00;;;;;;5036862;28;20050;-69
2022/09/03 01:58:58;;;;;;;6.85;1.88;;;17.40;87.10;;;;;;5036058;28;20042;-70
2022/09/03 02:01:36;;;;;;;4.90;1.40;;;17.30;87.20;;;;;;5036369;28;20037;-70
2022/09/03 02:04:17;;;;;;;2.30;1.35;;;17.30;87.50;;;;;;5036360;28;20073;-70
2022/09/03 02:06:43;;;;;;;3.50;1.63;;;17.30;87.80;;;;;;5036252;28;20046;-70
2022/09/03 02:09:09;;;;;;;4.00;1.73;;;17.30;88.30;;;;;;5036684;28;20071;-70
2022/09/03 02:11:36;;;;;;;4.95;1.50;;;17.30;87.70;;;;;;5036238;28;20109;-70
2022/09/03 02:14:04;;;;;;;14.95;1.77;;;17.30;87.50;;;;;;5035828;28;20049;-70
2022/09/03 02:16:32;;;;;;;4.68;1.65;;;17.30;87.90;;;;;;5036021;28;20042;-69
2022/09/03 02:19:01;;;;;;;3.83;1.58;;;17.30;88.10;;;;;;5035898;28;20051;-70
2022/09/03 02:21:34;;;;;;;2.80;1.60;;;17.20;88.10;;;;;;5036392;28;20116;-70
2022/09/03 02:23:59;;;;;;;4.18;1.58;;;17.30;88.10;;;;;;5035836;28;20054;-70
2022/09/03 02:26:25;;;;;;;2.15;1.50;;;17.20;88.50;;;;;;5035642;28;20053;-70
2022/09/03 02:28:52;;;;;;;8.15;1.80;;;17.20;88.70;;;;;;5025426;28;20088;-70
2022/09/03 02:31:18;;;;;;;3.67;1.60;;;17.20;88.20;;;;;;5035702;28;20460;-69
2022/09/03 02:33:46;;;;;;;2.67;1.45;;;17.20;88.40;;;;;;5035873;28;20095;-70
2022/09/03 02:36:15;;;;;;;2.88;1.50;;;17.20;88.40;;;;;;5035620;28;20463;-69
2022/09/03 02:38:42;;;;;;;2.30;1.50;;;17.20;89.00;;;;;;5035738;28;20052;-69
2022/09/03 02:41:07;;;;;;;5.07;1.60;;;17.10;89.00;;;;;;5035888;28;20067;-69
2022/09/03 02:43:44;;;;;;;2.10;1.40;;;17.10;88.90;;;;;;5035180;28;20041;-70
2022/09/03 02:46:17;;;;;;;3.15;1.42;;;17.10;89.30;;;;;;5035419;28;20041;-70
2022/09/03 02:48:42;;;;;;;3.08;1.95;;;17.10;89.40;;;;;;5035575;28;20409;-70
2022/09/03 02:51:09;;;;;;;4.10;1.60;;;17.10;89.40;;;;;;5035590;28;20034;-69
2022/09/03 02:53:35;;;;;;;2.17;1.38;;;17.10;89.80;;;;;;5035396;28;20103;-70
2022/09/03 02:56:01;;;;;;;4.60;1.52;;;17.10;90.00;;;;;;5035613;28;20368;-69
2022/09/03 02:58:27;;;;;;;2.17;1.30;;;17.10;89.80;;;;;;5024137;28;20120;-69
2022/09/03 03:00:53;;;;;;;1.50;1.40;;;17.10;90.00;;;;;;5035353;28;20049;-69
2022/09/03 03:03:19;;;;;;;3.28;1.52;;;17.00;89.90;;;;;;5035646;28;20110;-70
2022/09/03 03:05:51;;;;;;;1.92;1.20;;;17.00;89.80;;;;;;5035115;28;20060;-69
2022/09/03 03:08:20;;;;;;;2.20;1.42;;;17.00;90.00;;;;;;5035472;28;20431;-69
2022/09/03 03:10:48;;;;;;;7.07;1.98;;;16.90;90.10;;;;;;5035191;28;20073;-70
2022/09/03 03:13:14;;;;;;;3.58;1.35;;;16.90;90.20;;;;;;5034872;28;20057;-69
2022/09/03 03:15:40;;;;;;;3.78;1.48;;;16.90;90.20;;;;;;5035278;28;20052;-70
2022/09/03 03:18:06;;;;;;;6.78;2.00;;;16.90;90.20;;;;;;5034917;28;20116;-69
2022/09/03 03:20:33;;;;;;;7.13;1.67;;;16.90;90.30;;;;;;5035073;28;20045;-70
2022/09/03 03:23:01;;;;;;;3.47;1.60;;;16.90;90.20;;;;;;5043658;28;20088;-70
2022/09/03 03:25:26;;;;;;;3.00;1.40;;;16.90;90.40;;;;;;5051893;28;20102;-70
2022/09/03 03:27:55;;;;;;;4.00;1.48;;;16.90;90.40;;;;;;5052121;28;20375;-69
2022/09/03 03:30:22;;;;;;;3.70;1.92;;;16.80;90.40;;;;;;5043332;28;20052;-69
2022/09/03 03:32:47;;;;;;;2.78;1.50;;;16.80;90.60;;;;;;5051791;28;20041;-70
2022/09/03 03:35:13;;;;;;;5.68;1.30;;;16.80;90.60;;;;;;5053346;28;20481;-70
2022/09/03 03:37:39;;;;;;;5.50;1.40;;;16.80;90.50;;;;;;5053131;28;20481;-70
2022/09/03 03:40:06;;;;;;;3.17;1.83;;;16.80;90.70;;;;;;5051603;28;20047;-71
2022/09/03 03:42:35;;;;;;;3.22;1.67;;;16.80;90.80;;;;;;5053186;28;20036;-71
2022/09/03 03:45:01;;;;;;;6.65;1.65;;;16.70;90.70;;;;;;5051706;28;20370;-70
2022/09/03 03:47:30;;;;;;;2.13;1.25;;;16.80;90.80;;;;;;5051659;28;20124;-70
2022/09/03 03:49:59;;;;;;;1.92;1.20;;;16.80;90.70;;;;;;5053791;28;20037;-70
2022/09/03 03:52:25;;;;;;;4.55;1.55;;;16.80;90.70;;;;;;5051837;28;20109;-70
2022/09/03 03:54:52;;;;;;;3.17;1.42;;;16.70;90.90;;;;;;5052099;28;20049;-69
2022/09/03 03:57:18;;;;;;;2.90;1.45;;;16.70;90.90;;;;;;5052746;28;20047;-70
2022/09/03 03:59:44;;;;;;;1.80;1.40;;;16.70;90.90;;;;;;5051765;28;20045;-70
2022/09/03 04:02:11;;;;;;;4.60;1.80;;;16.70;90.90;;;;;;5053368;28;20044;-70
2022/09/03 04:04:36;;;;;;;3.47;1.70;;;16.70;91.10;;;;;;5051433;28;20056;-70
2022/09/03 04:07:02;;;;;;;3.22;1.73;;;16.70;91.00;;;;;;5051616;28;20045;-69
2022/09/03 04:09:28;;;;;;;4.43;1.83;;;16.70;91.20;;;;;;5053094;28;20041;-70
2022/09/03 04:11:56;;;;;;;3.55;1.30;;;16.70;91.30;;;;;;5051301;28;20102;-70
2022/09/03 04:14:22;;;;;;;3.78;1.35;;;16.70;91.30;;;;;;5052011;28;20056;-70
2022/09/03 04:16:49;;;;;;;2.42;1.65;;;16.60;91.50;;;;;;5052545;28;20069;-70
2022/09/03 04:19:15;;;;;;;2.65;1.38;;;16.60;91.60;;;;;;5051297;28;20052;-69
2022/09/03 04:21:41;;;;;;;3.17;1.80;;;16.60;91.50;;;;;;5053136;28;20037;-69
2022/09/03 04:24:06;;;;;;;1.60;1.30;;;16.70;91.60;;;;;;5051074;28;20114;-69
2022/09/03 04:26:32;;;;;;;2.10;1.58;;;16.60;91.60;;;;;;5051167;28;20337;-69
2022/09/03 04:29:01;;;;;;;5.43;2.10;;;16.60;91.60;;;;;;5052691;28;20041;-69
2022/09/03 04:31:27;;;;;;;3.88;1.50;;;16.70;92.10;;;;;;5051280;28;20041;-69
2022/09/03 04:33:53;;;;;;;2.17;1.55;;;16.60;91.70;;;;;;5051787;28;20376;-70
2022/09/03 04:36:21;;;;;;;5.30;1.98;;;16.60;91.80;;;;;;5054235;28;20211;-69
2022/09/03 04:38:49;;;;;;;3.05;1.52;;;16.60;92.00;;;;;;5054725;28;20459;-69
2022/09/03 04:41:23;;;;;;;3.42;1.55;;;16.50;92.00;;;;;;5056528;28;20037;-71
2022/09/03 04:43:51;;;;;;;5.55;1.90;;;16.60;92.10;;;;;;5049955;28;20055;-71
2022/09/03 04:46:17;;;;;;;5.93;1.65;;;16.60;92.20;;;;;;5040782;28;20057;-69
2022/09/03 04:48:46;;;;;;;2.90;1.45;;;16.50;92.10;;;;;;5039549;28;20041;-70
2022/09/03 04:51:16;;;;;;;3.50;1.63;;;16.50;92.20;;;;;;5056063;28;20368;-69
2022/09/03 04:53:47;;;;;;;8.18;1.67;;;16.50;92.10;;;;;;5055126;28;20079;-70
2022/09/03 04:56:18;;;;;;;2.88;1.35;;;16.50;92.20;;;;;;5056641;28;20045;-69
2022/09/03 04:58:44;;;;;;;5.60;1.42;;;16.50;92.30;;;;;;5049601;28;20045;-69
2022/09/03 05:01:15;;;;;;;9.60;2.40;;;16.50;92.40;;;;;;5040487;28;20041;-69
2022/09/03 05:03:41;;;;;;;3.10;1.50;;;16.50;92.70;;;;;;5039114;28;20135;-70
2022/09/03 05:06:07;;;;;;;2.30;1.70;;;16.50;92.60;;;;;;5040113;28;20092;-70
2022/09/03 05:08:36;;;;;;;5.70;1.80;;;16.50;92.60;;;;;;5040488;28;20049;-70
2022/09/03 05:11:06;;;;;;;3.63;1.67;;;16.40;92.80;;;;;;5039111;28;20049;-70
2022/09/03 05:13:33;;;;;;;3.17;1.55;;;16.40;92.90;;;;;;5039814;28;20053;-70
2022/09/03 05:16:05;;;;;;;5.78;1.92;;;16.40;92.80;;;;;;5050026;28;20080;-70
2022/09/03 05:18:31;;;;;;;3.88;1.80;;;16.40;92.90;;;;;;5055936;28;20037;-69
2022/09/03 05:21:01;;;;;;;4.97;2.05;;;16.40;93.20;;;;;;5054155;28;20068;-70
2022/09/03 05:23:29;;;;;;;6.30;2.05;;;16.40;93.20;;;;;;5054388;28;20049;-68
2022/09/03 05:25:59;;;;;;;3.00;1.83;;;16.40;93.40;;;;;;5056039;28;20041;-69
2022/09/03 05:28:26;;;;;;;3.03;1.75;;;16.40;93.70;;;;;;5054294;28;20079;-70
2022/09/03 05:31:10;;;;;;;4.68;1.70;;;16.40;93.60;;;;;;5045893;28;20367;-69
2022/09/03 05:33:38;;;;;;;7.07;2.38;;;16.40;93.90;;;;;;5047495;28;20371;-65
2022/09/03 05:36:06;;;;;;;5.13;1.50;;;16.40;93.70;;;;;;5054145;28;20041;-66
2022/09/03 05:38:32;;;;;;;3.22;1.80;;;16.40;93.90;;;;;;5054210;28;20052;-72
2022/09/03 05:41:02;;;;;;;2.60;1.50;;;16.40;94.00;;;;;;5055875;28;20041;-71
2022/09/03 05:44:00;;;;;;;3.03;1.92;;;16.40;94.00;;;;;;5041280;28;20060;-72
2022/09/03 05:47:21;;;;;;;2.67;1.75;;;16.40;94.50;;;;;;5022357;28;20061;-71
2022/09/03 05:49:53;;;;;;;3.50;1.70;;;16.40;94.50;;;;;;5037068;28;20085;-72
2022/09/03 05:52:20;;;;;;;4.63;2.28;;;16.40;94.40;;;;;;5046441;28;20094;-73
2022/09/03 05:54:46;;;;;;;4.07;2.15;;;16.40;94.30;;;;;;5057033;28;20071;-74
2022/09/03 05:57:12;;;;;;;5.13;1.92;;;16.40;94.30;;;;;;5055188;28;20048;-73
2022/09/03 05:59:39;;;;;;;5.50;1.92;;;16.40;94.40;;;;;;5053798;28;20124;-74
2022/09/03 06:02:05;;;;;;;3.33;1.60;;;16.40;94.60;;;;;;5055198;28;20518;-73
2022/09/03 06:04:31;;;;;;;4.47;1.70;;;16.40;94.90;;;;;;5052584;28;20175;-73
2022/09/03 06:06:57;;;;;;;3.80;2.25;;;16.40;95.00;;;;;;5053540;28;20037;-69
2022/09/03 06:09:26;;;;;;;3.40;1.92;;;16.50;94.90;;;;;;5055292;28;20033;-73
2022/09/03 06:11:53;;;;;;;4.80;2.08;;;16.40;95.20;;;;;;5053575;28;20063;-74
2022/09/03 06:14:19;;;;;;;4.20;1.95;;;16.40;95.20;;;;;;5054306;28;20410;-69
2022/09/03 06:16:48;;;;;;;4.45;1.73;;;16.40;95.20;;;;;;5053962;28;20037;-70
2022/09/03 06:19:14;;;;;;;2.97;1.90;;;16.40;95.50;;;;;;5053173;28;20060;-70
2022/09/03 06:21:42;;;;;;;2.90;1.77;;;16.40;95.20;;;;;;5054830;28;20086;-68
2022/09/03 06:24:13;;;;;;;3.60;1.88;;;16.40;95.50;;;;;;5035242;28;20466;-69
2022/09/03 06:26:39;;;;;;;2.92;2.00;;;16.40;95.60;;;;;;5053076;28;20041;-69
2022/09/03 06:29:05;;;;;;;4.05;2.30;;;16.40;95.70;;;;;;5054720;28;20055;-69
2022/09/03 06:31:31;;;;;;;2.78;1.88;;;16.30;95.90;;;;;;5052887;28;20079;-70
2022/09/03 06:33:56;;;;;;;3.70;2.03;;;16.40;96.10;;;;;;5053081;28;20041;-68
2022/09/03 06:36:25;;;;;;;6.30;2.10;;;16.40;96.10;;;;;;5054532;28;20036;-66
2022/09/03 06:38:52;;;;;;;3.70;2.28;;;16.40;96.10;;;;;;5053170;28;20102;-67
2022/09/03 06:41:23;;;;;;;5.07;2.47;;;16.40;96.00;;;;;;5054271;28;20115;-66
2022/09/03 06:43:50;;;;;;;3.85;1.98;;;16.50;96.00;;;;;;5053690;28;20074;-69
2022/09/03 06:46:18;;;;;;;3.20;2.28;;;16.50;96.30;;;;;;5052368;28;20474;-67
2022/09/03 06:48:45;;;;;;;4.05;2.10;;;16.60;96.40;;;;;;5054316;28;20049;-68
2022/09/03 06:51:16;;;;;;;4.88;2.13;;;16.60;96.20;;;;;;5054038;28;20044;-67
2022/09/03 06:53:44;;;;;;;3.35;2.00;;;16.60;96.10;;;;;;5052713;28;20367;-68
2022/09/03 06:56:15;;;;;;;2.25;1.77;;;16.70;95.90;;;;;;5053935;28;20063;-69
2022/09/03 06:58:43;;;;;;;9.15;2.42;;;16.80;96.20;;;;;;5020743;28;20103;-68
2022/09/03 07:01:20;;;;;;;6.15;2.35;;;16.80;96.00;;;;;;5038036;28;20051;-68
2022/09/03 07:03:50;;;;;;;5.60;2.28;;;16.90;95.90;;;;;;5019440;28;20108;-68
2022/09/03 07:06:18;;;;;;;8.45;2.25;;;17.00;95.80;;;;;;5029847;28;20037;-68
2022/09/03 07:08:45;;;;;;;3.92;1.90;;;17.00;95.70;;;;;;5037934;28;20436;-69
2022/09/03 07:11:18;;;;;;;3.35;2.25;;;17.10;95.70;;;;;;5036578;28;20041;-69
2022/09/03 07:13:46;;;;;;;3.15;2.20;;;17.10;95.60;;;;;;5053668;28;20080;-69
2022/09/03 07:16:17;;;;;;;4.80;2.63;;;17.20;95.30;;;;;;5052230;28;20762;-69
2022/09/03 07:18:43;;;;;;;5.57;2.40;;;17.30;95.50;;;;;;5053925;28;20049;-68
2022/09/03 07:21:11;;;;;;;3.65;2.08;;;17.40;95.20;;;;;;5033973;28;20124;-69
2022/09/03 07:23:38;;;;;;;3.38;2.10;;;17.40;94.70;;;;;;5051930;28;20072;-70
2022/09/03 07:26:11;;;;;;;6.53;2.08;;;17.50;94.40;;;;;;5053507;28;20439;-70
2022/09/03 07:28:42;;;;;;;6.60;2.05;;;17.50;94.10;;;;;;5052040;28;20124;-69
2022/09/03 07:31:15;;;;;;;2.67;2.03;;;17.60;93.90;;;;;;5051701;28;20052;-69
2022/09/03 07:33:41;;;;;;;1.63;1.52;;;17.60;93.90;;;;;;5053549;28;20112;-69
2022/09/03 07:36:13;;;;;;;2.80;1.95;;;17.60;93.60;;;;;;5051666;28;20110;-69
2022/09/03 07:38:39;;;;;;;5.22;2.30;;;17.70;93.60;;;;;;5051883;28;20359;-69
2022/09/03 07:41:07;;;;;;;6.07;2.15;;;17.70;93.60;;;;;;5053575;28;20068;-71
2022/09/03 07:43:47;;;;;;;3.25;2.03;;;17.70;93.50;;;;;;5042858;28;20360;-72
2022/09/03 07:46:23;;;;;;;5.90;2.42;;;17.80;93.40;;;;;;5051230;28;20045;-71
2022/09/03 07:52:29;;;;;;;4.30;2.60;;;17.90;93.30;;;;;;5051083;28;20094;-70
2022/09/03 07:54:54;;;;;;;7.38;2.22;;;17.90;92.50;;;;;;5052217;28;20127;-68
2022/09/03 07:57:20;;;;;;;3.40;2.30;;;17.90;92.70;;;;;;5052820;28;20052;-69
2022/09/03 07:59:46;;;;;;;9.20;2.30;;;17.90;92.60;;;;;;5051371;28;20475;-68
2022/09/03 08:02:12;;;;;;;6.00;2.45;;;18.00;92.70;;;;;;5035644;28;20060;-68
2022/09/03 08:04:38;;;;;;;6.13;2.33;;;18.00;92.70;;;;;;5051570;28;20041;-69
2022/09/03 08:07:04;;;;;;;3.90;2.03;;;18.00;92.80;;;;;;5051347;28;20460;-68
2022/09/03 08:09:31;;;;;;;3.40;2.20;;;18.00;92.70;;;;;;5053113;28;20037;-68
2022/09/03 08:11:57;;;;;;;3.30;2.28;;;18.10;92.90;;;;;;5050687;28;20049;-69
2022/09/03 08:14:23;;;;;;;5.22;2.42;;;18.10;92.80;;;;;;5052119;28;20423;-69
2022/09/03 08:16:48;;;;;;;2.78;2.38;;;18.10;92.70;;;;;;5052365;28;20049;-69
2022/09/03 08:19:17;;;;;;;4.13;2.53;;;18.20;92.80;;;;;;5051048;28;20439;-68
2022/09/03 08:21:42;;;;;;;4.40;2.15;;;18.20;92.60;;;;;;5053125;28;20379;-70
2022/09/03 08:24:09;;;;;;;2.95;2.30;;;18.20;92.40;;;;;;5051179;28;20048;-69
2022/09/03 08:26:38;;;;;;;5.43;2.08;;;18.30;92.40;;;;;;5051056;28;20057;-68
2022/09/03 08:29:04;;;;;;;4.93;2.22;;;18.30;92.50;;;;;;5052901;28;20056;-69
2022/09/03 08:31:31;;;;;;;6.82;2.13;;;18.40;92.50;;;;;;5051235;28;20037;-69
2022/09/03 08:34:05;;;;;;;5.80;2.17;;;18.40;92.40;;;;;;5051894;28;20410;-68
2022/09/03 08:36:32;;;;;;;5.57;2.17;;;18.50;92.30;;;;;;5043396;28;20559;-69
2022/09/03 08:39:03;;;;;;;5.60;2.15;;;18.50;92.30;;;;;;5051119;28;20097;-69
2022/09/03 08:41:49;;;;;;;6.82;2.22;;;18.50;92.30;;;;;;5033804;28;20060;-68
2022/09/03 08:44:28;;;;;;;3.08;2.30;;;18.60;92.30;;;;;;5045204;28;20041;-69
2022/09/03 08:46:59;;;;;;;5.78;2.45;;;18.70;92.50;;;;;;5046054;28;20467;-69
2022/09/03 08:49:45;;;;;;;5.72;1.95;;;18.70;92.20;;;;;;5036177;28;20460;-67
2022/09/03 08:52:24;;;;;;;4.55;2.30;;;18.80;92.20;;;;;;5019299;28;20530;-70
2022/09/03 08:54:53;;;;;;;2.92;2.25;;;18.80;91.90;;;;;;5035502;28;20046;-69
2022/09/03 08:57:20;;;;;;;4.88;2.17;;;18.80;92.00;;;;;;5045968;28;20045;-68
2022/09/03 08:59:51;;;;;;;5.82;2.75;;;18.90;91.90;;;;;;5036520;28;20037;-69
2022/09/03 09:02:43;;;;;;;6.78;2.47;;;18.90;91.90;;;;;;5035300;28;20356;-68
2022/09/03 09:05:16;;;;;;;4.18;2.10;;;18.90;91.80;;;;;;5043978;28;20048;-69
2022/09/03 09:08:03;;;;;;;4.30;2.40;;;18.90;92.20;;;;;;5036763;28;20052;-69
2022/09/03 09:10:28;;;;;;;4.47;2.08;;;19.00;92.00;;;;;;5036677;28;20045;-68
2022/09/03 09:13:21;;;;;;;5.32;2.30;;;19.00;92.10;;;;;;5035838;28;20065;-67
2022/09/03 09:15:52;;;;;;;3.65;2.22;;;19.10;92.00;;;;;;5045134;28;20467;-68
2022/09/03 09:18:40;;;;;;;4.65;2.50;;;19.10;92.20;;;;;;5045889;28;20051;-70
2022/09/03 09:21:15;;;;;;;6.25;2.38;;;19.10;91.90;;;;;;5036389;28;20056;-69
2022/09/03 09:23:47;;;;;;;2.72;2.22;;;19.20;91.80;;;;;;5039666;28;20049;-67
2022/09/03 09:26:18;;;;;;;7.57;2.53;;;19.30;91.70;;;;;;5039018;28;20467;-69
2022/09/03 09:29:00;;;;;;;6.47;2.50;;;19.30;91.80;;;;;;5055569;28;20049;-69
2022/09/03 09:31:29;;;;;;;3.60;2.33;;;19.30;92.00;;;;;;5053725;28;20037;-69
2022/09/03 09:34:00;;;;;;;7.35;2.67;;;19.50;91.80;;;;;;5054828;28;20057;-69
2022/09/03 09:36:27;;;;;;;6.72;2.15;;;19.50;92.00;;;;;;5045811;28;20049;-70
2022/09/03 09:38:53;;;;;;;6.22;2.60;;;19.60;91.90;;;;;;5036532;28;20052;-71
2022/09/03 09:41:22;;;;;;;4.63;2.13;;;19.60;91.70;;;;;;5037828;28;20048;-68
2022/09/03 09:43:58;;;;;;;7.93;2.20;;;19.70;91.70;;;;;;5048823;28;20042;-68
2022/09/03 09:46:35;;;;;;;5.13;2.33;;;19.70;91.90;;;;;;5039512;28;20033;-69
2022/09/03 09:49:00;;;;;;;5.82;2.20;;;19.70;91.80;;;;;;5039504;28;20060;-69
2022/09/03 09:51:29;;;;;;;2.50;2.08;;;19.70;91.60;;;;;;5038279;28;20042;-69
2022/09/03 09:54:01;;;;;;;3.75;2.15;;;19.80;91.60;;;;;;5039365;28;20041;-69
2022/09/03 09:56:27;;;;;;;7.75;2.60;;;19.80;91.50;;;;;;5039086;28;20046;-69
2022/09/03 09:59:04;;;;;;;4.53;2.03;;;19.90;91.50;;;;;;5038255;28;20060;-69
2022/09/03 10:01:30;;;;;;;7.18;2.30;;;19.90;91.40;;;;;;5039712;28;20037;-70
2022/09/03 10:04:08;;;;;;;6.10;2.30;;;20.00;91.20;;;;;;5053852;28;20102;-70
2022/09/03 10:06:52;;;;;;;4.70;2.08;;;20.10;91.20;;;;;;5045910;28;20127;-68
2022/09/03 10:09:26;;;;;;;5.82;2.15;;;20.20;90.60;;;;;;5048602;28;20037;-68
2022/09/03 10:12:13;;;;;;;2.17;1.88;;;20.30;91.00;;;;;;5039064;28;20057;-70
2022/09/03 10:14:49;;;;;;;7.63;2.42;;;20.30;91.00;;;;;;5038698;28;20451;-69
2022/09/03 10:17:27;;;;;;;2.88;2.03;;;20.40;91.00;;;;;;5038012;28;20360;-67
2022/09/03 10:20:30;;;;;;;6.25;2.20;;;20.50;90.50;;;;;;5048362;28;20050;-69
2022/09/03 10:23:07;;;;;;;3.17;2.10;;;20.70;90.10;;;;;;5044163;28;20509;-70
2022/09/03 10:25:49;;;;;;;4.03;2.38;;;20.70;89.90;;;;;;5053182;28;20095;-69
2022/09/03 10:28:15;;;;;;;3.00;1.88;;;20.70;89.60;;;;;;5053053;28;20421;-70
2022/09/03 10:31:25;;;;;;;7.07;2.30;;;20.70;89.80;;;;;;5054958;28;20041;-68
2022/09/03 10:34:20;;;;;;;5.40;2.20;;;20.80;88.80;;;;;;5046706;28;20084;-68
2022/09/03 10:37:20;;;;;;;2.72;1.80;;;20.80;88.90;;;;;;5054952;28;20040;-69
2022/09/03 10:40:20;;;;;;;7.95;2.40;;;21.00;89.10;;;;;;5047287;28;20048;-69
2022/09/03 10:42:48;;;;;;;7.70;2.30;;;21.00;88.30;;;;;;5047107;28;20053;-69
2022/09/03 10:45:45;;;;;;;5.00;1.90;;;21.10;88.10;;;;;;5039030;28;20041;-68
2022/09/03 10:48:48;;;;;;;3.08;1.98;;;21.10;87.80;;;;;;5038343;28;20049;-69
2022/09/03 10:51:40;;;;;;;2.65;1.63;;;21.10;87.80;;;;;;5028327;28;20045;-68
2022/09/03 10:54:30;;;;;;;7.85;2.42;;;21.10;88.30;;;;;;5049998;28;20379;-68
2022/09/03 10:57:23;;;;;;;5.22;2.10;;;21.20;87.70;;;;;;5050397;28;20084;-67
2022/09/03 11:00:07;;;;;;;6.75;1.98;;;21.30;88.00;;;;;;5052727;28;20103;-70
2022/09/03 11:02:36;;;;;;;;;;;21.30;88.00;;;;;;5052940;28;20077;-69
2022/09/03 11:05:08;;;;;;;2.58;1.95;;;21.30;87.70;;;;;;5053932;28;19924;-69
2022/09/03 11:07:39;;;;;;;2.38;2.08;;;21.40;88.20;;;;;;5052343;28;20486;-69
2022/09/03 11:10:16;;;;;;;3.15;1.70;;;21.50;88.00;;;;;;5052568;28;20040;-68
2022/09/03 11:12:56;;;;;;;5.90;2.28;;;21.60;86.50;;;;;;5054013;28;20059;-70
2022/09/03 11:15:41;;;;;;;5.05;2.28;;;21.70;86.20;;;;;;5047178;28;20049;-68
2022/09/03 11:18:09;;;;;;;;;;;21.80;84.80;;;;;;5038168;28;20407;-68
2022/09/03 11:20:35;;;;;;;10.60;3.55;;;21.80;85.80;;;;;;5037482;28;19931;-69
2022/09/03 11:23:04;;;;;;;3.13;2.20;;;21.90;84.90;;;;;;5035340;28;20140;-70
2022/09/03 11:25:36;;;;;;;3.40;1.80;;;21.90;84.40;;;;;;5034451;28;20045;-70
2022/09/03 11:28:17;;;;;;;6.45;2.40;;;22.10;82.90;;;;;;5034644;28;20041;-69
2022/09/03 11:31:12;;;;;;;7.75;2.47;;;22.30;83.50;;;;;;5034662;28;20452;-69
2022/09/03 11:33:44;;;;;;;6.15;2.17;;;22.30;82.50;;;;;;5035210;28;20107;-68
2022/09/03 11:36:10;;;;;;;4.28;2.08;;;22.30;82.10;;;;;;5034740;28;20080;-70
2022/09/03 11:38:38;;;;;;;3.53;2.30;;;22.40;82.00;;;;;;5034507;28;20052;-69
2022/09/03 11:41:34;;;;;;;3.88;2.08;;;22.50;82.20;;;;;;5035095;28;20081;-70
2022/09/03 11:44:16;;;;;;;7.85;2.38;;;22.60;80.80;;;;;;5017999;28;20057;-71
2022/09/03 11:46:55;;;;;;;3.15;2.03;;;22.70;81.30;;;;;;5034485;28;20076;-68
2022/09/03 11:49:29;;;;;;;5.03;2.00;;;22.80;80.10;;;;;;5034389;28;20803;-70
2022/09/03 11:52:02;;;;;;;;;;;23.00;79.10;;;;;;5035303;28;20128;-69
2022/09/03 11:54:31;;;;;;;2.70;1.90;;;22.90;77.80;;;;;;5024468;28;19920;-70
2022/09/03 11:57:15;;;;;;;2.42;1.70;;;22.80;79.30;;;;;;5034012;28;20487;-69
2022/09/03 11:59:42;;;;;;;3.08;2.10;;;23.00;78.30;;;;;;5034519;28;20037;-71
2022/09/03 12:02:14;;;;;;;2.00;1.70;;;23.10;78.40;;;;;;5034724;28;20042;-69
2022/09/03 12:04:54;;;;;;;3.40;2.03;;;23.20;77.60;;;;;;5034454;28;20051;-70
2022/09/03 12:07:41;;;;;;;4.07;2.10;;;23.30;76.80;;;;;;5033687;28;20364;-69
2022/09/03 12:10:19;;;;;;;5.90;2.28;;;23.40;75.70;;;;;;5034132;28;20037;-71
2022/09/03 12:12:53;;;;;;;5.03;2.40;;;23.60;75.80;;;;;;5034543;28;20452;-71
2022/09/03 12:15:41;;;;;;;4.93;2.15;;;23.60;75.50;;;;;;5033525;28;20060;-70
2022/09/03 12:18:17;;;;;;;3.17;1.85;;;23.60;75.00;;;;;;5034160;28;20096;-69
2022/09/03 12:20:44;;;;;;;4.28;2.17;;;23.80;74.90;;;;;;5034257;28;20466;-70
2022/09/03 12:23:13;;;;;;;2.60;1.98;;;23.70;73.40;;;;;;5034116;28;20053;-71
2022/09/03 12:25:47;;;;;;;8.55;2.10;;;23.70;73.80;;;;;;5034275;28;20089;-69
2022/09/03 12:28:22;;;;;;;3.60;1.87;;;23.70;73.60;;;;;;5034246;28;20064;-69
2022/09/03 12:30:52;;;;;;;5.68;2.00;;;23.90;72.00;;;;;;5030402;28;20297;-69
2022/09/03 12:33:21;;;;;;;6.85;1.80;;;24.00;71.30;;;;;;5033170;28;20099;-68
2022/09/03 12:35:58;;;;;;;3.42;1.92;;;24.10;71.50;;;;;;5016601;28;20414;-70
2022/09/03 12:38:24;;;;;;;5.40;1.92;;;24.20;71.30;;;;;;5033993;28;20444;-68
2022/09/03 12:40:50;;;;;;;5.55;1.98;;;24.20;71.40;;;;;;5034003;28;20144;-68
2022/09/03 12:43:17;;;;;;;5.68;1.90;;;24.30;72.00;;;;;;5033947;28;20037;-70
2022/09/03 12:45:48;;;;;;;5.55;1.98;;;24.40;71.20;;;;;;5034482;28;20121;-71
2022/09/03 12:48:15;;;;;;;3.53;1.70;;;24.40;70.80;;;;;;5034041;28;20038;-72
2022/09/03 12:50:42;;;;;;;3.60;1.73;;;24.50;71.40;;;;;;5034049;28;20073;-69
2022/09/03 12:53:29;;;;;;;5.22;2.47;;;24.60;70.80;;;;;;5034210;28;20436;-68
2022/09/03 12:55:58;;;;;;;5.13;2.13;;;24.80;70.20;;;;;;5022465;28;20049;-70
2022/09/03 12:58:41;;;;;;;3.65;2.40;;;24.80;70.00;;;;;;5034416;28;20337;-69
2022/09/03 13:01:16;;;;;;;2.80;1.90;;;25.00;70.50;;;;;;5032655;28;20045;-69
2022/09/03 13:03:48;;;;;;;4.20;1.92;;;25.10;70.30;;;;;;5037679;28;20048;-67
2022/09/03 13:06:18;;;;;;;15.43;2.83;;;25.30;69.40;;;;;;5037531;28;20041;-69
2022/09/03 13:09:06;;;;;;;3.83;1.80;;;25.50;69.30;;;;;;5037251;28;20091;-69
2022/09/03 13:11:36;;;;;;;3.15;1.85;;;25.80;67.30;;;;;;5037580;28;20490;-69
2022/09/03 13:14:08;;;;;;;2.38;1.70;;;26.00;67.90;;;;;;5027491;28;20064;-69
2022/09/03 13:16:37;;;;;;;3.63;1.75;;;26.30;67.40;;;;;;5037382;28;20384;-70
2022/09/03 13:19:06;;;;;;;5.38;1.80;;;26.80;68.20;;;;;;5037264;28;20056;-70
2022/09/03 13:21:47;;;;;;;4.28;2.15;;;27.40;67.50;;;;;;5037514;28;20044;-72